Time;durP1;ratioP1;P1;durP2;ratioP2;P2;SDS_P1;SDS_P2;PMS_P1;PMS_P2;Temp;Humidity;BMP_temperature;BMP_pressure;BME280_temperature;BME280_humidity;BME280_pressure;Samples;Min_cycle;Max_cycle;Signal;HPM_P1;HPM_P2
2022/01/08 00:01:28;;;;;;;3.80;2.17;;;2.70;99.90;;;;;;5094617;28;20215;-44
2022/01/08 00:03:54;;;;;;;6.30;2.60;;;2.70;99.90;;;;;;5094150;28;20281;-45
2022/01/08 00:06:21;;;;;;;5.47;2.13;;;2.70;99.90;;;;;;5094409;28;20594;-45
2022/01/08 00:08:48;;;;;;;3.47;2.27;;;2.70;99.90;;;;;;5095066;28;20185;-46
2022/01/08 00:11:18;;;;;;;5.23;2.17;;;2.80;99.90;;;;;;5094142;28;20206;-45
2022/01/08 00:13:46;;;;;;;3.43;1.90;;;2.70;99.90;;;;;;5094185;28;20276;-45
2022/01/08 00:16:12;;;;;;;8.90;2.30;;;2.70;99.90;;;;;;5094133;28;20178;-44
2022/01/08 00:18:38;;;;;;;4.97;1.80;;;2.80;99.90;;;;;;5076478;28;20630;-45
2022/01/08 00:21:05;;;;;;;7.53;2.03;;;2.80;99.90;;;;;;5094165;28;20186;-45
2022/01/08 00:23:31;;;;;;;6.10;2.40;;;2.70;99.90;;;;;;5094232;28;20673;-45
2022/01/08 00:25:59;;;;;;;6.73;2.17;;;2.70;99.90;;;;;;5076716;28;20178;-44
2022/01/08 00:28:26;;;;;;;5.50;2.10;;;2.70;99.90;;;;;;5094031;28;20206;-44
2022/01/08 00:30:57;;;;;;;5.60;2.33;;;2.70;99.90;;;;;;5094042;28;20213;-45
2022/01/08 00:33:24;;;;;;;6.23;1.87;;;2.70;99.90;;;;;;5076593;28;20228;-44
2022/01/08 00:35:50;;;;;;;5.97;2.10;;;2.70;99.90;;;;;;5094388;28;20566;-46
2022/01/08 00:38:17;;;;;;;9.10;1.93;;;2.70;99.90;;;;;;5075668;28;20192;-44
2022/01/08 00:40:43;;;;;;;3.43;2.00;;;2.70;99.90;;;;;;5093618;28;20649;-44
2022/01/08 00:43:09;;;;;;;9.00;2.00;;;2.70;99.90;;;;;;5093723;28;20731;-46
2022/01/08 00:45:36;;;;;;;6.37;1.93;;;2.70;99.90;;;;;;5093787;28;20182;-43
2022/01/08 00:48:02;;;;;;;5.90;1.60;;;2.70;99.90;;;;;;5075362;28;20190;-44
2022/01/08 00:50:29;;;;;;;3.00;1.67;;;2.70;99.90;;;;;;5093562;28;20252;-44
2022/01/08 00:52:55;;;;;;;5.00;1.93;;;2.70;99.90;;;;;;5093644;28;20596;-44
2022/01/08 00:55:23;;;;;;;3.53;2.00;;;2.70;99.90;;;;;;5093418;28;20185;-45
2022/01/08 00:57:50;;;;;;;4.90;2.00;;;2.70;99.90;;;;;;5075134;28;20201;-45
2022/01/08 01:00:17;;;;;;;5.57;1.50;;;2.70;99.90;;;;;;5093556;28;20427;-45
2022/01/08 01:02:45;;;;;;;5.33;1.93;;;2.70;99.90;;;;;;5075489;28;20668;-45
2022/01/08 01:05:12;;;;;;;3.67;1.80;;;2.70;99.90;;;;;;5093403;28;20180;-46
2022/01/08 01:07:38;;;;;;;2.77;1.70;;;2.70;99.90;;;;;;5075270;28;20189;-45
2022/01/08 01:10:08;;;;;;;5.70;1.80;;;2.60;99.90;;;;;;5093757;28;20415;-45
2022/01/08 01:12:35;;;;;;;6.40;2.30;;;2.60;99.90;;;;;;5093292;28;20246;-45
2022/01/08 01:15:01;;;;;;;5.53;1.80;;;2.60;99.90;;;;;;5097592;28;20177;-45
2022/01/08 01:17:27;;;;;;;4.20;2.00;;;2.50;99.90;;;;;;5100169;28;20674;-45
2022/01/08 01:19:53;;;;;;;5.17;2.00;;;2.50;99.90;;;;;;5100434;28;20249;-45
2022/01/08 01:22:23;;;;;;;3.23;1.83;;;2.40;99.90;;;;;;5100081;28;20201;-46
2022/01/08 01:24:50;;;;;;;4.67;2.00;;;2.30;99.90;;;;;;5099918;28;20186;-45
2022/01/08 01:41:17;;;;;;;7.73;2.13;;;1.90;99.90;;;;;;5100236;28;20394;-45
2022/01/08 01:48:59;;;;;;;6.90;1.90;;;1.70;99.90;;;;;;5100258;28;20201;-45
2022/01/08 01:51:25;;;;;;;7.33;2.20;;;1.70;99.90;;;;;;5099724;28;20237;-45
2022/01/08 01:53:51;;;;;;;7.43;2.20;;;1.60;99.90;;;;;;5099938;28;20284;-44
2022/01/08 01:56:20;;;;;;;4.63;2.10;;;1.60;99.90;;;;;;5100267;28;20701;-45
2022/01/08 01:58:46;;;;;;;6.87;1.80;;;1.60;99.90;;;;;;5099611;28;20431;-46
2022/01/08 02:01:13;;;;;;;4.93;2.00;;;1.50;99.90;;;;;;5064916;28;20589;-44
2022/01/08 02:03:39;;;;;;;3.10;1.93;;;1.50;99.90;;;;;;5099642;28;20209;-45
2022/01/08 02:06:06;;;;;;;4.57;1.93;;;1.50;99.90;;;;;;5099743;28;20177;-45
2022/01/08 02:08:33;;;;;;;5.33;2.30;;;1.50;99.90;;;;;;5099552;28;20192;-46
2022/01/08 02:10:58;;;;;;;7.17;2.00;;;1.50;99.90;;;;;;5099534;28;20286;-44
2022/01/08 02:13:26;;;;;;;8.63;1.90;;;1.50;99.90;;;;;;5099819;28;20466;-46
2022/01/08 02:15:54;;;;;;;5.40;2.23;;;1.40;99.90;;;;;;5099832;28;20211;-45
2022/01/08 02:18:21;;;;;;;7.53;2.57;;;1.40;99.90;;;;;;5081306;28;20178;-45
2022/01/08 02:20:47;;;;;;;5.17;2.10;;;1.40;99.90;;;;;;5099765;28;20550;-45
2022/01/08 02:23:13;;;;;;;6.20;2.40;;;1.40;99.90;;;;;;5099414;28;20450;-45
2022/01/08 02:25:38;;;;;;;3.90;2.00;;;1.30;99.90;;;;;;5098385;28;20180;-44
2022/01/08 02:28:05;;;;;;;4.30;2.27;;;1.30;99.90;;;;;;5096339;28;20581;-44
2022/01/08 02:30:30;;;;;;;4.80;2.13;;;1.30;99.90;;;;;;5096263;28;20286;-43
2022/01/08 02:32:56;;;;;;;4.67;2.10;;;1.20;99.90;;;;;;5096181;28;20225;-44
2022/01/08 02:35:22;;;;;;;4.27;2.33;;;1.20;99.90;;;;;;5096241;28;20173;-44
2022/01/08 02:37:52;;;;;;;4.57;2.30;;;1.10;99.90;;;;;;5096428;28;20197;-44
2022/01/08 02:40:20;;;;;;;7.93;2.17;;;1.10;99.90;;;;;;5077794;28;20415;-45
2022/01/08 02:45:17;;;;;;;4.33;2.00;;;1.00;99.90;;;;;;5094400;28;20239;-88
2022/01/08 02:47:43;;;;;;;7.83;2.20;;;1.00;99.90;;;;;;5079207;28;20505;-89
2022/01/08 02:50:09;;;;;;;6.57;2.20;;;1.00;99.90;;;;;;5078575;28;20510;-89
2022/01/08 02:52:40;;;;;;;8.30;2.30;;;0.90;99.90;;;;;;5078962;28;20604;-89
2022/01/08 02:55:07;;;;;;;4.93;2.53;;;0.90;99.90;;;;;;5079262;28;20203;-88
2022/01/08 02:57:32;;;;;;;5.73;2.10;;;0.90;99.90;;;;;;5079190;28;20426;-87
2022/01/08 02:59:58;;;;;;;3.37;1.97;;;0.90;99.90;;;;;;5079460;28;20423;-89
2022/01/08 03:02:24;;;;;;;4.60;2.50;;;0.80;99.90;;;;;;5079603;28;20551;-89
2022/01/08 03:04:50;;;;;;;3.97;2.13;;;0.80;99.90;;;;;;5078385;28;20198;-89
2022/01/08 03:07:15;;;;;;;4.13;2.70;;;0.80;99.90;;;;;;5078471;28;20662;-89
2022/01/08 03:09:42;;;;;;;5.87;2.53;;;0.80;99.90;;;;;;5078213;28;20181;-88
2022/01/08 03:12:09;;;;;;;7.03;2.93;;;0.90;99.90;;;;;;5096030;28;20194;-89
2022/01/08 03:14:35;;;;;;;6.37;3.20;;;0.90;99.90;;;;;;5078425;28;20542;-90
2022/01/08 03:17:00;;;;;;;6.27;3.20;;;0.90;99.90;;;;;;5077731;28;20559;-90
2022/01/08 03:19:26;;;;;;;4.80;3.33;;;0.90;99.90;;;;;;5078095;28;20201;-88
2022/01/08 03:21:54;;;;;;;6.77;3.57;;;0.90;99.90;;;;;;5078255;28;20177;-89
2022/01/08 03:24:27;;;;;;;7.33;3.70;;;0.90;99.90;;;;;;5096184;28;20220;-89
2022/01/08 03:26:53;;;;;;;6.87;3.43;;;1.00;99.90;;;;;;5078291;28;20415;-90
2022/01/08 03:29:19;;;;;;;8.83;4.23;;;1.00;99.90;;;;;;5077730;28;20479;-90
2022/01/08 03:31:45;;;;;;;12.77;5.07;;;1.00;99.90;;;;;;5078190;28;20774;-90
2022/01/08 03:34:10;;;;;;;13.47;4.97;;;1.30;99.90;;;;;;5078885;28;20569;-89
2022/01/08 03:36:36;;;;;;;10.57;5.13;;;1.10;99.90;;;;;;5077405;28;20180;-88
2022/01/08 03:39:03;;;;;;;10.33;5.00;;;1.10;99.90;;;;;;5077280;28;20214;-88
2022/01/08 03:41:28;;;;;;;9.77;4.90;;;1.10;99.90;;;;;;5078261;28;20333;-89
2022/01/08 03:43:54;;;;;;;9.03;5.63;;;1.10;99.90;;;;;;5077031;28;20574;-89
2022/01/08 03:46:20;;;;;;;10.33;6.17;;;1.10;99.90;;;;;;5095917;28;20181;-89
2022/01/08 03:49:10;;;;;;;9.37;5.60;;;1.10;99.90;;;;;;5077563;28;20188;-90
2022/01/08 03:51:34;;;;;;;10.33;4.10;;;1.10;99.90;;;;;;5095262;28;20466;-91
2022/01/08 03:54:00;;;;;;;11.57;6.20;;;1.10;99.90;;;;;;5077613;28;20420;-89
2022/01/08 03:56:27;;;;;;;12.10;5.93;;;1.10;99.90;;;;;;5077125;28;20517;-89
2022/01/08 03:58:52;;;;;;;9.03;6.07;;;1.10;99.90;;;;;;5077036;28;20180;-90
2022/01/08 04:01:18;;;;;;;11.67;6.30;;;1.10;99.90;;;;;;5077790;28;20986;-90
2022/01/08 04:03:43;;;;;;;8.47;5.77;;;1.10;99.90;;;;;;5095073;28;20184;-89
2022/01/08 04:06:09;;;;;;;13.90;7.10;;;1.10;99.90;;;;;;5076884;28;20200;-90
2022/01/08 04:08:34;;;;;;;11.30;6.03;;;1.10;99.90;;;;;;5078950;28;20235;-90
2022/01/08 04:11:01;;;;;;;11.87;6.90;;;1.10;99.90;;;;;;5076777;28;20227;-90
2022/01/08 04:13:30;;;;;;;13.50;7.17;;;1.10;99.90;;;;;;5095322;28;20176;-89
2022/01/08 04:16:01;;;;;;;15.50;7.10;;;1.10;99.90;;;;;;5094573;28;20773;-89
2022/01/08 04:18:27;;;;;;;14.87;7.10;;;1.20;99.90;;;;;;5076714;28;20501;-89
2022/01/08 04:23:22;;;;;;;13.10;7.07;;;1.20;99.90;;;;;;5094509;28;20190;-91
2022/01/08 04:25:49;;;;;;;17.17;7.20;;;1.10;99.90;;;;;;5076695;28;20605;-90
2022/01/08 04:28:16;;;;;;;12.23;6.97;;;1.10;99.90;;;;;;5076477;28;20425;-90
2022/01/08 04:30:42;;;;;;;19.63;9.37;;;1.10;99.90;;;;;;5076144;28;20542;-89
2022/01/08 04:33:07;;;;;;;12.37;6.73;;;1.10;99.90;;;;;;5076364;28;20815;-90
2022/01/08 04:35:33;;;;;;;14.53;7.53;;;1.00;99.90;;;;;;5076047;28;20461;-90
2022/01/08 04:37:59;;;;;;;16.03;7.47;;;1.00;99.90;;;;;;5076040;28;20230;-90
2022/01/08 04:40:24;;;;;;;11.80;7.40;;;1.00;99.90;;;;;;5076226;28;20171;-90
2022/01/08 04:42:50;;;;;;;15.13;8.50;;;1.00;99.90;;;;;;5094194;28;20210;-90
2022/01/08 04:45:16;;;;;;;17.43;8.40;;;1.00;99.90;;;;;;5093770;28;20674;-90
2022/01/08 04:47:41;;;;;;;14.47;8.37;;;1.00;99.90;;;;;;5076180;28;20263;-90
2022/01/08 04:50:08;;;;;;;16.43;7.50;;;1.00;99.90;;;;;;5075119;28;20180;-90
2022/01/08 04:52:34;;;;;;;13.87;7.53;;;0.90;99.90;;;;;;5075845;28;20184;-90
2022/01/08 04:54:59;;;;;;;14.47;8.17;;;0.90;99.90;;;;;;5076207;28;20524;-89
2022/01/08 04:57:25;;;;;;;13.97;7.23;;;0.90;99.90;;;;;;5075984;28;20182;-89
2022/01/08 04:59:51;;;;;;;12.60;7.83;;;0.90;99.90;;;;;;5076726;28;20570;-92
2022/01/08 05:02:16;;;;;;;15.53;8.30;;;0.90;99.90;;;;;;5094537;28;20262;-90
2022/01/08 05:04:42;;;;;;;17.30;8.10;;;0.90;99.90;;;;;;5076153;28;20209;-88
2022/01/08 05:07:08;;;;;;;16.20;7.70;;;0.90;99.90;;;;;;5076121;28;20187;-91
2022/01/08 05:09:33;;;;;;;16.70;7.20;;;0.90;99.90;;;;;;5094084;28;20262;-90
2022/01/08 05:11:59;;;;;;;13.63;7.00;;;0.90;99.90;;;;;;5075586;28;20219;-90
2022/01/08 05:14:27;;;;;;;17.37;7.90;;;0.90;99.90;;;;;;5075822;28;20227;-90
2022/01/08 05:16:58;;;;;;;18.70;8.40;;;0.90;99.90;;;;;;5093861;28;20175;-89
2022/01/08 05:19:35;;;;;;;13.40;7.43;;;0.90;99.90;;;;;;5075667;28;20406;-91
2022/01/08 05:22:01;;;;;;;17.63;7.47;;;0.80;99.90;;;;;;5093779;28;20404;-90
2022/01/08 05:24:26;;;;;;;17.73;7.47;;;0.90;99.90;;;;;;5075634;28;20445;-90
2022/01/08 05:26:52;;;;;;;21.50;8.80;;;0.80;99.90;;;;;;5075782;28;20179;-90
2022/01/08 05:29:17;;;;;;;17.00;7.03;;;0.80;99.90;;;;;;5093884;28;20648;-89
2022/01/08 05:31:43;;;;;;;18.03;8.37;;;0.90;99.90;;;;;;5075491;28;20208;-88
2022/01/08 05:34:09;;;;;;;13.87;8.03;;;0.90;99.90;;;;;;5075680;28;20892;-89
2022/01/08 05:36:34;;;;;;;13.67;7.30;;;0.90;99.90;;;;;;5093367;28;20186;-89
2022/01/08 05:39:00;;;;;;;14.50;6.57;;;0.90;99.90;;;;;;5075571;28;20178;-90
2022/01/08 05:41:25;;;;;;;10.73;6.77;;;1.10;99.90;;;;;;5075785;28;20186;-90
2022/01/08 05:43:51;;;;;;;15.90;7.17;;;1.00;99.90;;;;;;5075256;28;20244;-89
2022/01/08 05:46:16;;;;;;;17.17;7.13;;;1.00;99.90;;;;;;5075710;28;20584;-90
2022/01/08 05:48:43;;;;;;;8.87;5.90;;;1.00;99.90;;;;;;5075549;28;20202;-90
2022/01/08 05:51:08;;;;;;;10.83;4.47;;;1.00;99.90;;;;;;5075018;28;20206;-90
2022/01/08 05:53:34;;;;;;;18.03;7.73;;;0.90;99.90;;;;;;5075535;28;20433;-90
2022/01/08 05:55:59;;;;;;;11.57;6.57;;;0.90;99.90;;;;;;5075327;28;20198;-90
2022/01/08 05:58:25;;;;;;;10.97;6.87;;;0.90;99.90;;;;;;5075094;28;20676;-89
2022/01/08 06:00:50;;;;;;;10.90;5.43;;;0.90;99.90;;;;;;5095292;28;20259;-89
2022/01/08 06:03:17;;;;;;;8.07;5.23;;;0.90;99.90;;;;;;5097475;28;20220;-91
2022/01/08 06:05:43;;;;;;;15.00;6.97;;;0.90;99.90;;;;;;5096909;28;20191;-90
2022/01/08 06:08:08;;;;;;;15.13;7.60;;;1.00;99.90;;;;;;5078997;28;20424;-90
2022/01/08 06:10:34;;;;;;;10.37;6.13;;;1.00;99.90;;;;;;5078953;28;20700;-87
2022/01/08 06:12:59;;;;;;;14.70;5.97;;;1.00;99.90;;;;;;5079211;28;20185;-91
2022/01/08 06:15:25;;;;;;;10.97;6.13;;;1.00;99.90;;;;;;5078906;28;20224;-90
2022/01/08 06:17:50;;;;;;;15.07;6.83;;;1.00;99.90;;;;;;5097683;28;20653;-89
2022/01/08 06:20:16;;;;;;;14.17;8.00;;;1.00;99.90;;;;;;5079112;28;20612;-90
2022/01/08 06:22:41;;;;;;;20.30;12.27;;;1.00;99.90;;;;;;5079041;28;20233;-89
2022/01/08 06:25:07;;;;;;;16.20;9.20;;;1.00;99.90;;;;;;5079686;28;20199;-90
2022/01/08 06:27:33;;;;;;;15.40;7.83;;;1.00;99.90;;;;;;5079216;28;20715;-88
2022/01/08 06:29:58;;;;;;;15.43;10.13;;;1.00;99.90;;;;;;5078925;28;20236;-88
2022/01/08 06:32:24;;;;;;;16.27;8.70;;;1.00;99.90;;;;;;5078724;28;20573;-90
2022/01/08 06:34:50;;;;;;;16.63;8.93;;;1.00;99.90;;;;;;5078626;28;20206;-89
2022/01/08 06:37:15;;;;;;;14.33;8.07;;;1.00;99.90;;;;;;5078730;28;20631;-91
2022/01/08 06:39:41;;;;;;;12.33;8.43;;;2.20;99.90;;;;;;5096851;28;20186;-90
2022/01/08 06:42:07;;;;;;;15.27;7.23;;;0.90;99.90;;;;;;5096669;28;20187;-91
2022/01/08 06:44:32;;;;;;;15.43;8.37;;;0.90;99.90;;;;;;5078292;28;20303;-90
2022/01/08 06:46:58;;;;;;;15.77;8.77;;;1.20;99.90;;;;;;5078520;28;20193;-89
2022/01/08 06:49:23;;;;;;;14.47;8.87;;;0.90;99.90;;;;;;5096918;28;20194;-90
2022/01/08 06:51:50;;;;;;;17.47;8.73;;;0.90;99.90;;;;;;5078478;28;20264;-90
2022/01/08 06:54:15;;;;;;;17.90;8.87;;;0.90;99.90;;;;;;5096396;28;20191;-90
2022/01/08 06:56:41;;;;;;;22.40;10.53;;;0.90;99.90;;;;;;5097591;28;20416;-91
2022/01/08 06:59:07;;;;;;;20.30;9.37;;;0.90;99.90;;;;;;5096278;28;20179;-90
2022/01/08 07:01:32;;;;;;;20.90;9.13;;;0.90;99.90;;;;;;5078218;28;20186;-90
2022/01/08 07:03:58;;;;;;;18.33;9.13;;;0.80;99.90;;;;;;5078476;28;20700;-90
2022/01/08 07:06:24;;;;;;;17.63;10.17;;;0.90;99.90;;;;;;5078768;28;20189;-89
2022/01/08 07:08:50;;;;;;;17.00;9.10;;;0.90;99.90;;;;;;5078893;28;20648;-89
2022/01/08 07:11:16;;;;;;;19.00;9.03;;;0.90;99.90;;;;;;5078295;28;20218;-89
2022/01/08 07:13:42;;;;;;;17.67;10.50;;;0.90;99.90;;;;;;5095447;28;20416;-90
2022/01/08 07:16:08;;;;;;;19.43;10.07;;;0.90;99.90;;;;;;5078081;28;20433;-89
2022/01/08 07:18:34;;;;;;;20.90;10.60;;;1.00;99.90;;;;;;5095984;28;20205;-89
2022/01/08 07:20:59;;;;;;;21.67;9.63;;;0.90;99.90;;;;;;5077815;28;20187;-90
2022/01/08 07:23:25;;;;;;;21.27;10.87;;;1.00;99.90;;;;;;5096103;28;20188;-88
2022/01/08 07:25:50;;;;;;;18.97;8.77;;;1.00;99.90;;;;;;5077608;28;20292;-91
2022/01/08 07:28:16;;;;;;;19.63;10.37;;;1.00;99.90;;;;;;5095622;28;20185;-90
2022/01/08 07:30:42;;;;;;;24.50;10.53;;;1.10;99.90;;;;;;5077666;28;20253;-91
2022/01/08 07:33:07;;;;;;;21.97;10.60;;;1.10;99.90;;;;;;5077987;28;20183;-90
2022/01/08 07:35:33;;;;;;;21.97;10.07;;;1.10;99.90;;;;;;5077438;28;20686;-91
2022/01/08 07:37:59;;;;;;;24.20;9.90;;;1.20;99.90;;;;;;5077962;28;20188;-91
2022/01/08 07:40:24;;;;;;;26.33;11.17;;;1.20;99.90;;;;;;5077623;28;20627;-90
2022/01/08 07:42:50;;;;;;;17.30;9.40;;;1.30;99.90;;;;;;5077703;28;20185;-90
2022/01/08 07:45:18;;;;;;;21.80;11.47;;;1.20;99.90;;;;;;5096330;28;20606;-90
2022/01/08 07:47:44;;;;;;;25.90;11.87;;;2.80;99.90;;;;;;5077122;28;20411;-89
2022/01/08 07:50:09;;;;;;;26.57;11.50;;;1.40;99.90;;;;;;5077227;28;20409;-91
2022/01/08 07:52:36;;;;;;;33.30;11.57;;;1.20;99.90;;;;;;5095484;28;20203;-90
2022/01/08 07:55:02;;;;;;;20.27;9.77;;;1.20;99.90;;;;;;5077182;28;20199;-91
2022/01/08 07:57:27;;;;;;;22.57;11.00;;;1.20;99.90;;;;;;5076885;28;20761;-90
2022/01/08 07:59:53;;;;;;;25.63;12.50;;;1.20;99.90;;;;;;5077113;28;20183;-89
2022/01/08 08:02:18;;;;;;;22.83;12.00;;;1.30;99.90;;;;;;5077225;28;20630;-89
2022/01/08 08:04:44;;;;;;;25.87;12.53;;;1.30;99.90;;;;;;5076908;28;20238;-90
2022/01/08 08:07:09;;;;;;;26.03;12.07;;;1.30;99.90;;;;;;5095249;28;20186;-90
2022/01/08 08:09:35;;;;;;;20.63;10.97;;;1.30;99.90;;;;;;5077905;28;20183;-89
2022/01/08 08:12:01;;;;;;;22.03;10.40;;;1.40;99.90;;;;;;5077190;28;20686;-90
2022/01/08 08:14:26;;;;;;;20.10;10.27;;;1.40;99.90;;;;;;5077182;28;20202;-90
2022/01/08 08:16:52;;;;;;;25.27;12.30;;;1.50;99.90;;;;;;5077243;28;20186;-89
2022/01/08 08:19:18;;;;;;;18.63;8.43;;;1.50;99.90;;;;;;5077715;28;20184;-90
2022/01/08 08:21:43;;;;;;;22.10;9.07;;;1.60;99.90;;;;;;5078054;28;20183;-90
2022/01/08 08:24:09;;;;;;;16.37;7.17;;;1.60;99.90;;;;;;5077948;28;20193;-90
2022/01/08 08:26:36;;;;;;;19.60;10.50;;;1.70;99.90;;;;;;5078984;28;20230;-90
2022/01/08 08:29:02;;;;;;;17.20;9.37;;;1.70;99.90;;;;;;5080652;28;20187;-88
2022/01/08 08:31:28;;;;;;;22.50;11.63;;;1.70;99.90;;;;;;5077795;28;20969;-89
2022/01/08 08:33:53;;;;;;;28.10;11.17;;;1.70;99.90;;;;;;5077356;28;20442;-88
2022/01/08 08:36:19;;;;;;;23.87;11.13;;;1.70;99.90;;;;;;5077313;28;20187;-88
2022/01/08 08:38:44;;;;;;;24.77;11.83;;;1.80;99.90;;;;;;5076537;28;20187;-91
2022/01/08 08:41:11;;;;;;;22.70;11.30;;;1.70;99.90;;;;;;5094831;28;20190;-90
2022/01/08 08:43:37;;;;;;;27.77;12.03;;;1.80;99.90;;;;;;5076581;28;20270;-90
2022/01/08 08:46:03;;;;;;;28.23;12.03;;;1.80;99.90;;;;;;5076811;28;21038;-91
2022/01/08 08:48:28;;;;;;;32.57;12.63;;;1.70;99.90;;;;;;5076452;28;20183;-89
2022/01/08 08:50:54;;;;;;;26.13;12.30;;;1.80;99.90;;;;;;5094683;28;20815;-91
2022/01/08 08:53:20;;;;;;;26.30;11.10;;;1.70;99.90;;;;;;5078229;28;20254;-91
2022/01/08 08:55:47;;;;;;;19.47;9.43;;;1.80;99.90;;;;;;5077604;28;20514;-91
2022/01/08 08:58:13;;;;;;;24.90;11.10;;;1.90;99.90;;;;;;5094128;28;20176;-91
2022/01/08 09:00:39;;;;;;;27.07;12.40;;;1.90;99.90;;;;;;5076154;28;20426;-90
2022/01/08 09:03:05;;;;;;;17.27;9.63;;;1.90;99.90;;;;;;5094391;28;20488;-90
2022/01/08 09:05:30;;;;;;;29.47;11.87;;;1.90;99.90;;;;;;5075723;28;20199;-90
2022/01/08 09:07:56;;;;;;;32.03;12.80;;;2.00;99.90;;;;;;5094050;28;20172;-90
2022/01/08 09:10:25;;;;;;;20.97;9.20;;;2.00;99.90;;;;;;5075775;28;20545;-90
2022/01/08 09:12:52;;;;;;;29.23;12.33;;;2.00;99.90;;;;;;5075865;28;20213;-91
2022/01/08 09:15:21;;;;;;;25.00;12.53;;;2.00;99.90;;;;;;5075710;28;20525;-90
2022/01/08 09:17:49;;;;;;;25.53;12.00;;;2.10;99.90;;;;;;5075857;28;20425;-90
2022/01/08 09:20:14;;;;;;;25.53;11.37;;;3.20;99.90;;;;;;5094112;28;20417;-89
2022/01/08 09:22:40;;;;;;;22.03;12.23;;;2.10;99.90;;;;;;5077219;28;20740;-90
2022/01/08 09:25:06;;;;;;;21.30;11.43;;;2.10;99.90;;;;;;5075562;28;20203;-90
2022/01/08 09:27:32;;;;;;;23.07;10.40;;;2.20;99.90;;;;;;5075503;28;20192;-89
2022/01/08 09:29:58;;;;;;;21.90;9.60;;;2.20;99.90;;;;;;5075740;28;20436;-89
2022/01/08 09:32:25;;;;;;;23.20;11.03;;;2.20;99.90;;;;;;5093565;28;20199;-90
2022/01/08 09:34:51;;;;;;;20.00;9.27;;;2.20;99.90;;;;;;5075762;28;20201;-88
2022/01/08 09:37:17;;;;;;;23.60;8.97;;;2.20;99.90;;;;;;5079807;28;20509;-89
2022/01/08 09:39:43;;;;;;;17.67;9.33;;;3.10;99.90;;;;;;5097673;28;20233;-90
2022/01/08 09:42:09;;;;;;;17.17;9.03;;;2.20;99.90;;;;;;5079690;28;20921;-90
2022/01/08 09:44:37;;;;;;;19.07;9.43;;;2.20;99.90;;;;;;5097570;28;20298;-90
2022/01/08 09:47:04;;;;;;;19.57;9.30;;;2.30;99.90;;;;;;5097671;28;20422;-90
2022/01/08 09:49:30;;;;;;;17.70;7.87;;;2.30;99.90;;;;;;5080291;28;20422;-88
2022/01/08 09:51:56;;;;;;;21.67;9.00;;;2.30;99.90;;;;;;5080451;28;20561;-90
2022/01/08 09:54:22;;;;;;;12.73;6.10;;;2.40;99.90;;;;;;5097865;28;20521;-88
2022/01/08 09:56:47;;;;;;;14.90;8.50;;;2.40;99.90;;;;;;5079368;28;20189;-89
2022/01/08 09:59:13;;;;;;;18.83;7.13;;;2.40;99.90;;;;;;5079143;28;20225;-87
2022/01/08 10:01:39;;;;;;;15.50;8.40;;;2.50;99.90;;;;;;5079036;28;20218;-89
2022/01/08 10:04:05;;;;;;;18.70;9.10;;;2.50;99.90;;;;;;5097431;28;20175;-87
2022/01/08 10:06:34;;;;;;;13.37;7.50;;;2.50;99.90;;;;;;5079018;28;20196;-89
2022/01/08 10:09:00;;;;;;;15.07;8.17;;;2.60;99.90;;;;;;5097319;28;20413;-89
2022/01/08 10:11:28;;;;;;;17.83;8.50;;;2.60;99.90;;;;;;5097139;28;20208;-89
2022/01/08 10:14:02;;;;;;;13.90;7.07;;;2.60;99.90;;;;;;5078869;28;20422;-89
2022/01/08 10:19:25;;;;;;;13.53;6.20;;;2.70;99.90;;;;;;5097311;28;20595;-90
2022/01/08 10:21:52;;;;;;;12.40;6.97;;;2.70;99.90;;;;;;5096914;28;20214;-89
2022/01/08 10:24:23;;;;;;;10.33;5.37;;;2.70;99.90;;;;;;5078912;28;20251;-89
2022/01/08 10:26:51;;;;;;;11.80;5.43;;;2.70;99.90;;;;;;5066985;28;20489;-89
2022/01/08 10:29:22;;;;;;;11.53;5.67;;;2.80;99.90;;;;;;5077526;28;20937;-90
2022/01/08 10:31:48;;;;;;;10.50;5.80;;;2.80;99.90;;;;;;5076202;28;20202;-89
2022/01/08 10:34:22;;;;;;;17.40;6.13;;;3.30;99.90;;;;;;5069813;28;20500;-88
2022/01/08 10:36:58;;;;;;;11.17;5.93;;;2.80;99.90;;;;;;5060114;28;20433;-89
2022/01/08 10:39:36;;;;;;;11.73;5.97;;;2.90;99.90;;;;;;5058281;28;20216;-88
2022/01/08 10:42:09;;;;;;;12.40;6.07;;;2.90;99.90;;;;;;5058439;28;20181;-91
2022/01/08 10:44:34;;;;;;;8.37;4.73;;;3.00;99.90;;;;;;5058203;28;20466;-90
2022/01/08 10:47:06;;;;;;;7.73;3.30;;;3.00;99.90;;;;;;5056877;28;20582;-90
2022/01/08 10:49:38;;;;;;;7.60;4.13;;;3.00;99.90;;;;;;5058379;28;20600;-89
2022/01/08 10:52:24;;;;;;;12.37;5.00;;;3.10;99.90;;;;;;5058096;28;20508;-89
2022/01/08 10:54:59;;;;;;;15.07;5.30;;;3.10;99.90;;;;;;5058143;28;20206;-88
2022/01/08 10:57:35;;;;;;;6.63;3.50;;;3.20;99.90;;;;;;5077080;28;20654;-89
2022/01/08 11:00:04;;;;;;;11.37;4.77;;;3.20;99.90;;;;;;5060831;28;20177;-88
2022/01/08 11:02:31;;;;;;;8.70;4.67;;;3.20;99.90;;;;;;5059605;28;20424;-90
2022/01/08 11:04:56;;;;;;;8.00;4.07;;;3.30;99.90;;;;;;5057904;28;20965;-90
2022/01/08 11:07:30;;;;;;;7.63;2.93;;;3.40;99.90;;;;;;5057864;28;20432;-89
2022/01/08 11:10:04;;;;;;;5.77;2.47;;;3.40;99.90;;;;;;5076107;28;20170;-89
2022/01/08 11:12:39;;;;;;;8.17;3.03;;;3.50;99.90;;;;;;5076276;28;20195;-89
2022/01/08 11:17:44;;;;;;;7.40;3.90;;;3.50;99.90;;;;;;5076577;28;20169;-90
2022/01/08 11:20:18;;;;;;;7.60;3.63;;;3.60;99.90;;;;;;5058445;28;20650;-89
2022/01/08 11:22:47;;;;;;;8.87;3.37;;;3.60;99.90;;;;;;5060292;28;20176;-90
2022/01/08 11:25:18;;;;;;;8.93;2.97;;;3.70;99.90;;;;;;5064875;28;20214;-91
2022/01/08 11:27:51;;;;;;;9.53;3.60;;;3.70;99.90;;;;;;5057758;28;20227;-89
2022/01/08 11:30:20;;;;;;;6.33;3.00;;;3.70;99.90;;;;;;5058199;28;20214;-89
2022/01/08 11:32:47;;;;;;;8.17;2.63;;;3.80;99.90;;;;;;5057357;28;20203;-89
2022/01/08 11:35:13;;;;;;;6.23;3.43;;;3.80;99.90;;;;;;5075159;28;20199;-90
2022/01/08 11:37:46;;;;;;;7.20;3.13;;;3.90;99.90;;;;;;5057671;28;20596;-89
2022/01/08 11:40:13;;;;;;;6.27;2.57;;;3.90;99.90;;;;;;5075811;28;20215;-88
2022/01/08 11:42:40;;;;;;;5.47;2.70;;;3.90;99.90;;;;;;5057646;28;20228;-90
2022/01/08 11:45:09;;;;;;;6.77;2.20;;;3.90;99.90;;;;;;5057334;28;20215;-90
2022/01/08 11:47:35;;;;;;;7.67;2.37;;;4.00;99.90;;;;;;5057130;28;20187;-87
2022/01/08 11:50:04;;;;;;;8.00;2.73;;;3.90;99.90;;;;;;5057451;28;20183;-89
2022/01/08 11:52:29;;;;;;;5.83;2.33;;;4.00;99.90;;;;;;5057322;28;20206;-90
2022/01/08 11:54:55;;;;;;;8.67;2.67;;;4.00;99.90;;;;;;5056902;28;20664;-90
2022/01/08 11:57:24;;;;;;;7.03;2.63;;;4.00;99.90;;;;;;5075497;28;20261;-88
2022/01/08 11:59:58;;;;;;;3.87;2.00;;;4.00;99.90;;;;;;5059845;28;20266;-89
2022/01/08 12:02:33;;;;;;;3.43;1.70;;;4.10;99.90;;;;;;5059389;28;20175;-87
2022/01/08 12:04:59;;;;;;;3.53;1.73;;;4.10;99.90;;;;;;5056832;28;20751;-88
2022/01/08 12:07:37;;;;;;;4.57;1.77;;;4.10;99.90;;;;;;5056844;28;20277;-89
2022/01/08 12:10:16;;;;;;;2.20;1.60;;;4.10;99.90;;;;;;5074640;28;20160;-87
2022/01/08 12:13:02;;;;;;;7.13;1.80;;;4.10;99.90;;;;;;5056865;28;20687;-88
2022/01/08 12:15:40;;;;;;;5.90;2.60;;;4.20;99.90;;;;;;5056323;28;20243;-89
2022/01/08 12:18:10;;;;;;;3.50;1.73;;;4.20;99.90;;;;;;5074265;28;20176;-88
2022/01/08 12:20:47;;;;;;;7.40;2.10;;;4.20;99.90;;;;;;5056652;28;20644;-88
2022/01/08 12:23:28;;;;;;;2.73;1.50;;;4.20;99.90;;;;;;5056465;28;20214;-90
2022/01/08 12:25:54;;;;;;;6.63;2.50;;;4.20;99.90;;;;;;5056157;28;20199;-90
2022/01/08 12:28:57;;;;;;;6.67;2.33;;;4.30;99.90;;;;;;5056378;28;20218;-90
2022/01/08 12:31:25;;;;;;;5.63;2.20;;;4.20;99.90;;;;;;5074585;28;20183;-91
2022/01/08 12:34:20;;;;;;;5.07;2.77;;;4.20;99.90;;;;;;5056270;28;20357;-90
2022/01/08 12:37:02;;;;;;;7.37;2.13;;;4.20;99.90;;;;;;5074430;28;20159;-92
2022/01/08 12:39:43;;;;;;;5.23;2.50;;;4.20;99.90;;;;;;5056050;28;20184;-90
2022/01/08 12:42:24;;;;;;;6.53;2.67;;;4.20;99.90;;;;;;5074746;28;20180;-90
2022/01/08 12:45:04;;;;;;;9.07;2.63;;;4.30;99.90;;;;;;5056240;28;20222;-89
2022/01/08 12:47:37;;;;;;;3.77;1.70;;;4.30;99.90;;;;;;5056088;28;20282;-90
2022/01/08 12:50:32;;;;;;;3.13;1.97;;;4.30;99.90;;;;;;5056259;28;20274;-91
2022/01/08 12:53:07;;;;;;;4.00;1.90;;;4.30;99.90;;;;;;5056167;28;20225;-89
2022/01/08 12:55:38;;;;;;;8.63;2.33;;;4.30;99.90;;;;;;5055873;28;20198;-87
2022/01/08 12:58:18;;;;;;;4.80;2.30;;;4.30;99.90;;;;;;5056090;28;20220;-88
2022/01/08 13:00:54;;;;;;;3.90;1.80;;;4.30;99.90;;;;;;5055928;28;20181;-88
2022/01/08 13:03:22;;;;;;;2.17;1.70;;;4.40;99.90;;;;;;5056072;28;20179;-89
2022/01/08 13:05:47;;;;;;;2.20;1.67;;;4.40;99.90;;;;;;5055891;28;20254;-90
2022/01/08 13:08:22;;;;;;;1.10;1.00;;;4.30;99.90;;;;;;5055547;28;20644;-89
2022/01/08 13:10:48;;;;;;;4.97;1.80;;;4.30;99.90;;;;;;5055532;28;20201;-90
2022/01/08 13:13:13;;;;;;;5.33;1.50;;;4.30;99.90;;;;;;5055540;28;20179;-90
2022/01/08 13:15:39;;;;;;;4.13;1.30;;;4.20;99.90;;;;;;5074445;28;20192;-93
2022/01/08 13:18:18;;;;;;;2.47;1.40;;;4.20;99.90;;;;;;5056770;28;20174;-90
2022/01/08 13:20:44;;;;;;;2.13;1.20;;;4.20;99.90;;;;;;5055592;28;20180;-89
2022/01/08 13:23:11;;;;;;;3.60;1.50;;;4.20;99.90;;;;;;5073742;28;20183;-90